sensor_id;sensor_type;location;lat;lon;timestamp;temperature;humidity
48876;DHT22;34689;51.644;5.618;2022-07-10T00:00:29;17.10;85.10
48876;DHT22;34689;51.644;5.618;2022-07-10T00:02:56;17.10;85.10
48876;DHT22;34689;51.644;5.618;2022-07-10T00:05:22;17.10;85.10
48876;DHT22;34689;51.644;5.618;2022-07-10T00:07:49;17.10;85.10
48876;DHT22;34689;51.644;5.618;2022-07-10T00:10:18;17.10;85.10
48876;DHT22;34689;51.644;5.618;2022-07-10T00:12:45;17.20;85.10
48876;DHT22;34689;51.644;5.618;2022-07-10T00:15:12;17.20;85.10
48876;DHT22;34689;51.644;5.618;2022-07-10T00:17:38;17.20;85.20
48876;DHT22;34689;51.644;5.618;2022-07-10T00:20:06;17.20;85.10
48876;DHT22;34689;51.644;5.618;2022-07-10T00:22:35;17.30;85.20
48876;DHT22;34689;51.644;5.618;2022-07-10T00:25:02;17.20;85.10
48876;DHT22;34689;51.644;5.618;2022-07-10T00:27:30;17.20;85.10
48876;DHT22;34689;51.644;5.618;2022-07-10T00:29:56;17.20;85.10
48876;DHT22;34689;51.644;5.618;2022-07-10T00:32:23;17.20;85.10
48876;DHT22;34689;51.644;5.618;2022-07-10T00:34:48;17.20;85.10
48876;DHT22;34689;51.644;5.618;2022-07-10T00:37:14;17.20;85.10
48876;DHT22;34689;51.644;5.618;2022-07-10T00:39:40;17.20;85.10
48876;DHT22;34689;51.644;5.618;2022-07-10T00:42:10;17.20;85.20
48876;DHT22;34689;51.644;5.618;2022-07-10T00:44:37;17.20;85.20
48876;DHT22;34689;51.644;5.618;2022-07-10T00:47:07;17.20;85.30
48876;DHT22;34689;51.644;5.618;2022-07-10T00:49:34;17.10;85.40
48876;DHT22;34689;51.644;5.618;2022-07-10T00:52:02;17.10;85.70
48876;DHT22;34689;51.644;5.618;2022-07-10T00:54:32;17.00;85.90
48876;DHT22;34689;51.644;5.618;2022-07-10T00:56:58;16.80;86.10
48876;DHT22;34689;51.644;5.618;2022-07-10T00:59:26;16.80;86.30
48876;DHT22;34689;51.644;5.618;2022-07-10T01:01:51;16.80;86.30
48876;DHT22;34689;51.644;5.618;2022-07-10T01:04:18;16.70;86.50
48876;DHT22;34689;51.644;5.618;2022-07-10T01:06:43;16.60;86.70
48876;DHT22;34689;51.644;5.618;2022-07-10T01:09:09;16.60;86.70
48876;DHT22;34689;51.644;5.618;2022-07-10T01:11:36;16.60;86.90
48876;DHT22;34689;51.644;5.618;2022-07-10T01:14:03;16.60;86.90
48876;DHT22;34689;51.644;5.618;2022-07-10T01:16:29;16.60;86.80
48876;DHT22;34689;51.644;5.618;2022-07-10T01:18:56;16.40;86.90
48876;DHT22;34689;51.644;5.618;2022-07-10T01:21:28;16.40;87.20
48876;DHT22;34689;51.644;5.618;2022-07-10T01:23:54;16.40;87.30
48876;DHT22;34689;51.644;5.618;2022-07-10T01:26:21;16.40;87.80
48876;DHT22;34689;51.644;5.618;2022-07-10T01:28:50;16.40;87.40
48876;DHT22;34689;51.644;5.618;2022-07-10T01:31:17;16.40;87.30
48876;DHT22;34689;51.644;5.618;2022-07-10T01:33:44;16.40;87.30
48876;DHT22;34689;51.644;5.618;2022-07-10T01:36:11;16.40;87.40
48876;DHT22;34689;51.644;5.618;2022-07-10T01:38:39;16.40;87.50
48876;DHT22;34689;51.644;5.618;2022-07-10T01:41:05;16.40;87.40
48876;DHT22;34689;51.644;5.618;2022-07-10T01:43:33;16.40;87.40
48876;DHT22;34689;51.644;5.618;2022-07-10T01:45:58;16.40;87.50
48876;DHT22;34689;51.644;5.618;2022-07-10T01:48:24;16.40;87.50
48876;DHT22;34689;51.644;5.618;2022-07-10T01:50:52;16.40;87.60
48876;DHT22;34689;51.644;5.618;2022-07-10T01:53:18;16.40;87.70
48876;DHT22;34689;51.644;5.618;2022-07-10T01:55:43;16.40;87.70
48876;DHT22;34689;51.644;5.618;2022-07-10T01:58:09;16.50;87.70
48876;DHT22;34689;51.644;5.618;2022-07-10T02:00:34;16.40;87.90
48876;DHT22;34689;51.644;5.618;2022-07-10T02:03:00;16.30;88.10
48876;DHT22;34689;51.644;5.618;2022-07-10T02:05:44;16.30;88.20
48876;DHT22;34689;51.644;5.618;2022-07-10T02:08:10;16.40;88.10
48876;DHT22;34689;51.644;5.618;2022-07-10T02:10:35;16.40;88.10
48876;DHT22;34689;51.644;5.618;2022-07-10T02:13:01;16.40;88.30
48876;DHT22;34689;51.644;5.618;2022-07-10T02:15:26;16.40;88.30
48876;DHT22;34689;51.644;5.618;2022-07-10T02:17:54;16.40;88.20
48876;DHT22;34689;51.644;5.618;2022-07-10T02:20:22;16.30;88.40
48876;DHT22;34689;51.644;5.618;2022-07-10T02:22:48;16.30;88.60
48876;DHT22;34689;51.644;5.618;2022-07-10T02:25:14;16.30;88.60
48876;DHT22;34689;51.644;5.618;2022-07-10T02:27:39;16.40;88.60
48876;DHT22;34689;51.644;5.618;2022-07-10T02:30:06;16.40;88.60
48876;DHT22;34689;51.644;5.618;2022-07-10T02:32:35;16.30;88.50
48876;DHT22;34689;51.644;5.618;2022-07-10T02:35:00;16.40;88.70
48876;DHT22;34689;51.644;5.618;2022-07-10T02:37:26;16.30;88.70
48876;DHT22;34689;51.644;5.618;2022-07-10T02:39:52;16.30;88.80
48876;DHT22;34689;51.644;5.618;2022-07-10T02:42:17;16.30;88.90
48876;DHT22;34689;51.644;5.618;2022-07-10T02:44:43;16.20;89.00
48876;DHT22;34689;51.644;5.618;2022-07-10T02:47:09;16.20;89.20
48876;DHT22;34689;51.644;5.618;2022-07-10T02:49:34;16.20;89.30
48876;DHT22;34689;51.644;5.618;2022-07-10T02:52:00;16.20;89.30
48876;DHT22;34689;51.644;5.618;2022-07-10T02:54:26;16.20;89.40
48876;DHT22;34689;51.644;5.618;2022-07-10T02:56:51;16.30;89.50
48876;DHT22;34689;51.644;5.618;2022-07-10T02:59:17;16.20;89.50
48876;DHT22;34689;51.644;5.618;2022-07-10T03:01:43;16.10;89.40
48876;DHT22;34689;51.644;5.618;2022-07-10T03:04:09;16.00;89.70
48876;DHT22;34689;51.644;5.618;2022-07-10T03:06:37;16.00;90.00
48876;DHT22;34689;51.644;5.618;2022-07-10T03:09:03;16.00;90.00
48876;DHT22;34689;51.644;5.618;2022-07-10T03:11:28;16.00;90.00
48876;DHT22;34689;51.644;5.618;2022-07-10T03:13:54;16.00;90.00
48876;DHT22;34689;51.644;5.618;2022-07-10T03:16:20;16.00;90.00
48876;DHT22;34689;51.644;5.618;2022-07-10T03:18:45;15.90;90.00
48876;DHT22;34689;51.644;5.618;2022-07-10T03:21:11;15.90;90.10
48876;DHT22;34689;51.644;5.618;2022-07-10T03:23:37;15.90;90.20
48876;DHT22;34689;51.644;5.618;2022-07-10T03:26:05;16.00;90.20
48876;DHT22;34689;51.644;5.618;2022-07-10T03:28:31;16.00;90.20
48876;DHT22;34689;51.644;5.618;2022-07-10T03:30:56;15.90;90.50
48876;DHT22;34689;51.644;5.618;2022-07-10T03:33:22;15.90;90.30
48876;DHT22;34689;51.644;5.618;2022-07-10T03:35:48;15.90;90.30
48876;DHT22;34689;51.644;5.618;2022-07-10T03:38:14;15.90;90.40
48876;DHT22;34689;51.644;5.618;2022-07-10T03:40:42;15.90;90.40
48876;DHT22;34689;51.644;5.618;2022-07-10T03:43:08;15.90;90.50
48876;DHT22;34689;51.644;5.618;2022-07-10T03:45:33;15.90;90.50
48876;DHT22;34689;51.644;5.618;2022-07-10T03:48:01;15.90;90.50
48876;DHT22;34689;51.644;5.618;2022-07-10T03:50:27;16.00;90.50
48876;DHT22;34689;51.644;5.618;2022-07-10T03:52:52;16.00;90.50
48876;DHT22;34689;51.644;5.618;2022-07-10T03:55:18;16.00;90.50
48876;DHT22;34689;51.644;5.618;2022-07-10T03:57:44;16.00;90.50
48876;DHT22;34689;51.644;5.618;2022-07-10T04:00:22;16.10;90.60
48876;DHT22;34689;51.644;5.618;2022-07-10T04:02:54;16.10;90.60
48876;DHT22;34689;51.644;5.618;2022-07-10T04:05:22;16.10;90.50
48876;DHT22;34689;51.644;5.618;2022-07-10T04:07:48;16.10;90.60
48876;DHT22;34689;51.644;5.618;2022-07-10T04:10:14;16.10;90.60
48876;DHT22;34689;51.644;5.618;2022-07-10T04:12:40;16.10;90.70
48876;DHT22;34689;51.644;5.618;2022-07-10T04:15:06;16.10;90.70
48876;DHT22;34689;51.644;5.618;2022-07-10T04:17:31;16.00;90.80
48876;DHT22;34689;51.644;5.618;2022-07-10T04:19:59;16.00;90.90
48876;DHT22;34689;51.644;5.618;2022-07-10T04:22:25;16.00;90.90
48876;DHT22;34689;51.644;5.618;2022-07-10T04:24:51;15.90;91.00
48876;DHT22;34689;51.644;5.618;2022-07-10T04:27:17;15.90;91.00
48876;DHT22;34689;51.644;5.618;2022-07-10T04:29:43;15.90;91.10
48876;DHT22;34689;51.644;5.618;2022-07-10T04:32:08;15.90;91.10
48876;DHT22;34689;51.644;5.618;2022-07-10T04:34:34;16.00;91.00
48876;DHT22;34689;51.644;5.618;2022-07-10T04:37:00;16.00;91.00
48876;DHT22;34689;51.644;5.618;2022-07-10T04:39:26;16.00;91.10
48876;DHT22;34689;51.644;5.618;2022-07-10T04:41:52;15.90;91.20
48876;DHT22;34689;51.644;5.618;2022-07-10T04:44:18;15.90;91.30
48876;DHT22;34689;51.644;5.618;2022-07-10T04:46:44;15.90;91.30
48876;DHT22;34689;51.644;5.618;2022-07-10T04:49:10;15.90;91.40
48876;DHT22;34689;51.644;5.618;2022-07-10T04:51:35;15.90;91.40
48876;DHT22;34689;51.644;5.618;2022-07-10T04:54:01;15.90;91.40
48876;DHT22;34689;51.644;5.618;2022-07-10T04:56:27;16.00;91.50
48876;DHT22;34689;51.644;5.618;2022-07-10T04:58:52;16.00;91.40
48876;DHT22;34689;51.644;5.618;2022-07-10T05:01:19;16.10;91.40
48876;DHT22;34689;51.644;5.618;2022-07-10T05:03:44;16.10;91.40
48876;DHT22;34689;51.644;5.618;2022-07-10T05:06:10;16.20;91.40
48876;DHT22;34689;51.644;5.618;2022-07-10T05:08:35;16.20;91.40
48876;DHT22;34689;51.644;5.618;2022-07-10T05:11:01;16.20;91.40
48876;DHT22;34689;51.644;5.618;2022-07-10T05:13:27;16.20;91.40
48876;DHT22;34689;51.644;5.618;2022-07-10T05:15:52;16.10;91.50
48876;DHT22;34689;51.644;5.618;2022-07-10T05:18:18;16.10;91.50
48876;DHT22;34689;51.644;5.618;2022-07-10T05:20:44;16.20;91.60
48876;DHT22;34689;51.644;5.618;2022-07-10T05:23:10;16.20;91.60
48876;DHT22;34689;51.644;5.618;2022-07-10T05:25:37;16.10;91.60
48876;DHT22;34689;51.644;5.618;2022-07-10T05:28:04;16.20;91.70
48876;DHT22;34689;51.644;5.618;2022-07-10T05:30:30;16.10;91.60
48876;DHT22;34689;51.644;5.618;2022-07-10T05:32:56;16.10;91.70
48876;DHT22;34689;51.644;5.618;2022-07-10T05:35:21;16.20;91.70
48876;DHT22;34689;51.644;5.618;2022-07-10T05:37:47;16.30;91.70
48876;DHT22;34689;51.644;5.618;2022-07-10T05:40:13;16.30;91.70
48876;DHT22;34689;51.644;5.618;2022-07-10T05:42:39;16.40;91.70
48876;DHT22;34689;51.644;5.618;2022-07-10T05:45:05;16.40;91.70
48876;DHT22;34689;51.644;5.618;2022-07-10T05:47:32;16.40;91.70
48876;DHT22;34689;51.644;5.618;2022-07-10T05:49:59;16.40;91.60
48876;DHT22;34689;51.644;5.618;2022-07-10T05:52:25;16.40;91.70
48876;DHT22;34689;51.644;5.618;2022-07-10T05:54:50;16.40;91.80
48876;DHT22;34689;51.644;5.618;2022-07-10T05:57:16;16.40;91.80
48876;DHT22;34689;51.644;5.618;2022-07-10T05:59:42;16.40;91.80
48876;DHT22;34689;51.644;5.618;2022-07-10T06:02:08;16.40;91.90
48876;DHT22;34689;51.644;5.618;2022-07-10T06:04:34;16.40;91.90
48876;DHT22;34689;51.644;5.618;2022-07-10T06:07:00;16.40;92.00
48876;DHT22;34689;51.644;5.618;2022-07-10T06:09:25;16.30;92.00
48876;DHT22;34689;51.644;5.618;2022-07-10T06:11:51;16.30;92.10
48876;DHT22;34689;51.644;5.618;2022-07-10T06:14:17;16.40;92.10
48876;DHT22;34689;51.644;5.618;2022-07-10T06:16:42;16.50;92.00
48876;DHT22;34689;51.644;5.618;2022-07-10T06:19:08;16.60;92.00
48876;DHT22;34689;51.644;5.618;2022-07-10T06:21:34;16.70;92.00
48876;DHT22;34689;51.644;5.618;2022-07-10T06:23:59;16.70;91.90
48876;DHT22;34689;51.644;5.618;2022-07-10T06:26:25;16.90;91.90
48876;DHT22;34689;51.644;5.618;2022-07-10T06:28:51;16.90;91.80
48876;DHT22;34689;51.644;5.618;2022-07-10T06:31:17;17.00;91.70
48876;DHT22;34689;51.644;5.618;2022-07-10T06:33:42;17.10;91.70
48876;DHT22;34689;51.644;5.618;2022-07-10T06:36:08;17.10;91.60
48876;DHT22;34689;51.644;5.618;2022-07-10T06:38:34;17.20;91.60
48876;DHT22;34689;51.644;5.618;2022-07-10T06:41:00;17.20;91.50
48876;DHT22;34689;51.644;5.618;2022-07-10T06:43:25;17.30;91.50
48876;DHT22;34689;51.644;5.618;2022-07-10T06:45:51;17.30;91.40
48876;DHT22;34689;51.644;5.618;2022-07-10T06:48:17;17.30;91.30
48876;DHT22;34689;51.644;5.618;2022-07-10T06:50:43;17.30;91.30
48876;DHT22;34689;51.644;5.618;2022-07-10T06:53:08;17.40;91.30
48876;DHT22;34689;51.644;5.618;2022-07-10T06:55:34;17.50;91.30
48876;DHT22;34689;51.644;5.618;2022-07-10T06:58:01;17.50;91.20
48876;DHT22;34689;51.644;5.618;2022-07-10T07:00:27;17.50;91.20
48876;DHT22;34689;51.644;5.618;2022-07-10T07:02:53;17.60;91.20
48876;DHT22;34689;51.644;5.618;2022-07-10T07:05:19;17.60;91.10
48876;DHT22;34689;51.644;5.618;2022-07-10T07:07:45;17.70;91.10
48876;DHT22;34689;51.644;5.618;2022-07-10T07:10:11;17.80;91.00
48876;DHT22;34689;51.644;5.618;2022-07-10T07:12:39;17.80;91.00
48876;DHT22;34689;51.644;5.618;2022-07-10T07:15:05;17.80;91.00
48876;DHT22;34689;51.644;5.618;2022-07-10T07:17:31;17.80;91.00
48876;DHT22;34689;51.644;5.618;2022-07-10T07:20:14;17.80;91.00
48876;DHT22;34689;51.644;5.618;2022-07-10T07:22:58;17.70;91.00
48876;DHT22;34689;51.644;5.618;2022-07-10T07:25:38;17.70;91.30
48876;DHT22;34689;51.644;5.618;2022-07-10T07:28:07;17.70;91.00
48876;DHT22;34689;51.644;5.618;2022-07-10T07:30:33;17.70;91.00
48876;DHT22;34689;51.644;5.618;2022-07-10T07:32:59;17.70;91.00
48876;DHT22;34689;51.644;5.618;2022-07-10T07:35:25;17.80;91.00
48876;DHT22;34689;51.644;5.618;2022-07-10T07:37:51;17.90;91.00
48876;DHT22;34689;51.644;5.618;2022-07-10T07:40:19;17.90;90.90
48876;DHT22;34689;51.644;5.618;2022-07-10T07:42:49;17.90;90.90
48876;DHT22;34689;51.644;5.618;2022-07-10T07:45:15;17.90;90.80
48876;DHT22;34689;51.644;5.618;2022-07-10T07:47:54;17.90;90.80
48876;DHT22;34689;51.644;5.618;2022-07-10T07:50:25;18.00;90.90
48876;DHT22;34689;51.644;5.618;2022-07-10T07:52:54;18.00;90.90
48876;DHT22;34689;51.644;5.618;2022-07-10T07:55:22;18.00;90.90
48876;DHT22;34689;51.644;5.618;2022-07-10T07:57:51;18.00;90.90
48876;DHT22;34689;51.644;5.618;2022-07-10T08:00:19;18.00;90.90
48876;DHT22;34689;51.644;5.618;2022-07-10T08:02:47;18.00;90.90
48876;DHT22;34689;51.644;5.618;2022-07-10T08:05:12;17.90;91.20
48876;DHT22;34689;51.644;5.618;2022-07-10T08:07:40;17.90;91.30
48876;DHT22;34689;51.644;5.618;2022-07-10T08:10:09;17.90;91.00
48876;DHT22;34689;51.644;5.618;2022-07-10T08:12:34;18.00;91.10
48876;DHT22;34689;51.644;5.618;2022-07-10T08:15:02;17.90;91.00
48876;DHT22;34689;51.644;5.618;2022-07-10T08:17:30;18.00;91.10
48876;DHT22;34689;51.644;5.618;2022-07-10T08:19:56;17.90;91.00
48876;DHT22;34689;51.644;5.618;2022-07-10T08:22:24;17.90;91.10
48876;DHT22;34689;51.644;5.618;2022-07-10T08:24:50;17.90;91.10
48876;DHT22;34689;51.644;5.618;2022-07-10T08:27:15;18.00;91.10
48876;DHT22;34689;51.644;5.618;2022-07-10T08:29:41;17.90;91.10
48876;DHT22;34689;51.644;5.618;2022-07-10T08:32:07;18.00;91.10
48876;DHT22;34689;51.644;5.618;2022-07-10T08:34:35;17.90;91.10
48876;DHT22;34689;51.644;5.618;2022-07-10T08:37:01;17.90;91.10
48876;DHT22;34689;51.644;5.618;2022-07-10T08:39:29;17.90;91.10
48876;DHT22;34689;51.644;5.618;2022-07-10T08:41:55;18.00;91.10
48876;DHT22;34689;51.644;5.618;2022-07-10T08:44:20;18.00;91.10
48876;DHT22;34689;51.644;5.618;2022-07-10T08:46:47;18.10;91.10
48876;DHT22;34689;51.644;5.618;2022-07-10T08:49:17;18.20;91.00
48876;DHT22;34689;51.644;5.618;2022-07-10T08:52:11;18.20;91.00
48876;DHT22;34689;51.644;5.618;2022-07-10T08:54:38;18.20;91.00
48876;DHT22;34689;51.644;5.618;2022-07-10T08:57:04;18.20;91.00
48876;DHT22;34689;51.644;5.618;2022-07-10T08:59:33;18.20;91.00
48876;DHT22;34689;51.644;5.618;2022-07-10T09:01:59;18.20;91.00
48876;DHT22;34689;51.644;5.618;2022-07-10T09:04:28;18.20;91.10
48876;DHT22;34689;51.644;5.618;2022-07-10T09:06:55;18.20;91.10
48876;DHT22;34689;51.644;5.618;2022-07-10T09:09:21;18.20;91.10
48876;DHT22;34689;51.644;5.618;2022-07-10T09:11:47;18.20;91.10
48876;DHT22;34689;51.644;5.618;2022-07-10T09:14:19;18.20;91.10
48876;DHT22;34689;51.644;5.618;2022-07-10T09:16:50;18.30;91.10
48876;DHT22;34689;51.644;5.618;2022-07-10T09:19:27;18.30;91.10
48876;DHT22;34689;51.644;5.618;2022-07-10T09:21:55;18.30;91.00
48876;DHT22;34689;51.644;5.618;2022-07-10T09:24:25;18.40;91.00
48876;DHT22;34689;51.644;5.618;2022-07-10T09:29:22;18.40;91.00
48876;DHT22;34689;51.644;5.618;2022-07-10T09:31:58;18.60;91.00
48876;DHT22;34689;51.644;5.618;2022-07-10T09:34:41;18.70;91.00
48876;DHT22;34689;51.644;5.618;2022-07-10T09:37:28;18.90;90.80
48876;DHT22;34689;51.644;5.618;2022-07-10T09:40:02;19.00;90.60
48876;DHT22;34689;51.644;5.618;2022-07-10T09:42:31;19.00;90.60
48876;DHT22;34689;51.644;5.618;2022-07-10T09:45:16;18.90;90.60
48876;DHT22;34689;51.644;5.618;2022-07-10T09:50:23;18.90;90.70
48876;DHT22;34689;51.644;5.618;2022-07-10T09:53:02;18.90;90.70
48876;DHT22;34689;51.644;5.618;2022-07-10T09:55:32;18.90;90.70
48876;DHT22;34689;51.644;5.618;2022-07-10T09:58:06;19.00;90.60
48876;DHT22;34689;51.644;5.618;2022-07-10T10:00:34;19.00;90.60
48876;DHT22;34689;51.644;5.618;2022-07-10T10:03:05;19.00;90.70
48876;DHT22;34689;51.644;5.618;2022-07-10T10:08:15;18.90;90.70
48876;DHT22;34689;51.644;5.618;2022-07-10T10:10:46;19.00;90.70
48876;DHT22;34689;51.644;5.618;2022-07-10T10:13:26;19.00;90.60
48876;DHT22;34689;51.644;5.618;2022-07-10T10:15:59;19.00;90.60
48876;DHT22;34689;51.644;5.618;2022-07-10T10:18:26;19.20;90.50
48876;DHT22;34689;51.644;5.618;2022-07-10T10:20:57;19.20;90.40
48876;DHT22;34689;51.644;5.618;2022-07-10T10:23:24;19.20;90.30
48876;DHT22;34689;51.644;5.618;2022-07-10T10:25:52;19.30;90.40
48876;DHT22;34689;51.644;5.618;2022-07-10T10:28:20;19.50;90.30
48876;DHT22;34689;51.644;5.618;2022-07-10T10:30:50;19.50;90.20
48876;DHT22;34689;51.644;5.618;2022-07-10T10:36:02;19.70;90.10
48876;DHT22;34689;51.644;5.618;2022-07-10T10:49:20;19.90;90.00
48876;DHT22;34689;51.644;5.618;2022-07-10T10:51:59;19.90;90.00
48876;DHT22;34689;51.644;5.618;2022-07-10T10:54:26;19.90;89.90
48876;DHT22;34689;51.644;5.618;2022-07-10T10:57:15;19.90;90.00
48876;DHT22;34689;51.644;5.618;2022-07-10T11:00:02;19.90;90.00
48876;DHT22;34689;51.644;5.618;2022-07-10T11:02:36;20.00;90.00
48876;DHT22;34689;51.644;5.618;2022-07-10T11:07:59;20.20;89.70
48876;DHT22;34689;51.644;5.618;2022-07-10T11:10:37;20.10;89.50
48876;DHT22;34689;51.644;5.618;2022-07-10T11:13:13;20.20;89.60
48876;DHT22;34689;51.644;5.618;2022-07-10T11:15:44;20.20;89.70
48876;DHT22;34689;51.644;5.618;2022-07-10T11:18:17;20.20;89.60
48876;DHT22;34689;51.644;5.618;2022-07-10T11:20:50;20.20;89.60
48876;DHT22;34689;51.644;5.618;2022-07-10T11:26:04;20.20;89.50
48876;DHT22;34689;51.644;5.618;2022-07-10T11:31:14;20.20;89.50
48876;DHT22;34689;51.644;5.618;2022-07-10T11:33:44;20.10;89.30
48876;DHT22;34689;51.644;5.618;2022-07-10T11:36:13;20.10;89.30
48876;DHT22;34689;51.644;5.618;2022-07-10T11:38:40;20.20;89.40
48876;DHT22;34689;51.644;5.618;2022-07-10T11:41:18;20.20;89.30
48876;DHT22;34689;51.644;5.618;2022-07-10T11:43:57;20.20;89.10
48876;DHT22;34689;51.644;5.618;2022-07-10T11:46:25;20.30;89.00
48876;DHT22;34689;51.644;5.618;2022-07-10T11:48:52;20.40;89.10
48876;DHT22;34689;51.644;5.618;2022-07-10T11:56:30;20.50;88.80
48876;DHT22;34689;51.644;5.618;2022-07-10T11:59:00;20.50;88.90
48876;DHT22;34689;51.644;5.618;2022-07-10T12:01:31;20.50;89.10
48876;DHT22;34689;51.644;5.618;2022-07-10T12:04:04;20.50;88.90
48876;DHT22;34689;51.644;5.618;2022-07-10T12:06:35;20.50;88.80
48876;DHT22;34689;51.644;5.618;2022-07-10T12:11:28;20.50;88.70
48876;DHT22;34689;51.644;5.618;2022-07-10T12:16:38;20.40;88.80
48876;DHT22;34689;51.644;5.618;2022-07-10T12:19:07;20.50;88.80
48876;DHT22;34689;51.644;5.618;2022-07-10T12:21:33;20.50;88.60
48876;DHT22;34689;51.644;5.618;2022-07-10T12:23:59;20.50;88.70
48876;DHT22;34689;51.644;5.618;2022-07-10T12:26:34;20.50;88.70
48876;DHT22;34689;51.644;5.618;2022-07-10T12:29:01;20.50;88.70
48876;DHT22;34689;51.644;5.618;2022-07-10T12:31:29;20.60;88.70
48876;DHT22;34689;51.644;5.618;2022-07-10T12:33:58;20.60;88.30
48876;DHT22;34689;51.644;5.618;2022-07-10T12:39:14;20.70;88.20
48876;DHT22;34689;51.644;5.618;2022-07-10T12:42:06;20.70;88.30
48876;DHT22;34689;51.644;5.618;2022-07-10T12:47:02;20.70;88.20
48876;DHT22;34689;51.644;5.618;2022-07-10T12:49:28;20.80;88.00
48876;DHT22;34689;51.644;5.618;2022-07-10T12:51:54;20.80;87.90
48876;DHT22;34689;51.644;5.618;2022-07-10T12:54:38;20.80;87.80
48876;DHT22;34689;51.644;5.618;2022-07-10T12:57:04;20.90;87.70
48876;DHT22;34689;51.644;5.618;2022-07-10T12:59:33;21.00;87.70
48876;DHT22;34689;51.644;5.618;2022-07-10T13:02:18;21.00;87.60
48876;DHT22;34689;51.644;5.618;2022-07-10T13:04:55;21.10;87.50
48876;DHT22;34689;51.644;5.618;2022-07-10T13:07:31;21.10;87.30
48876;DHT22;34689;51.644;5.618;2022-07-10T13:09:59;21.10;87.30
48876;DHT22;34689;51.644;5.618;2022-07-10T13:12:26;21.10;87.10
48876;DHT22;34689;51.644;5.618;2022-07-10T13:14:54;21.10;87.10
48876;DHT22;34689;51.644;5.618;2022-07-10T13:17:20;21.20;87.20
48876;DHT22;34689;51.644;5.618;2022-07-10T13:19:48;21.10;87.20
48876;DHT22;34689;51.644;5.618;2022-07-10T13:22:14;21.10;87.20
48876;DHT22;34689;51.644;5.618;2022-07-10T13:24:40;21.10;87.20
48876;DHT22;34689;51.644;5.618;2022-07-10T13:27:08;21.10;87.10
48876;DHT22;34689;51.644;5.618;2022-07-10T13:29:34;21.20;86.90
48876;DHT22;34689;51.644;5.618;2022-07-10T13:32:03;21.20;86.90
48876;DHT22;34689;51.644;5.618;2022-07-10T13:34:31;21.20;86.70
48876;DHT22;34689;51.644;5.618;2022-07-10T13:36:57;21.20;86.80
48876;DHT22;34689;51.644;5.618;2022-07-10T13:39:27;21.30;86.70
48876;DHT22;34689;51.644;5.618;2022-07-10T13:41:55;21.30;86.70
48876;DHT22;34689;51.644;5.618;2022-07-10T13:44:21;21.30;86.70
48876;DHT22;34689;51.644;5.618;2022-07-10T13:46:49;21.30;86.70
48876;DHT22;34689;51.644;5.618;2022-07-10T13:49:14;21.30;86.40
48876;DHT22;34689;51.644;5.618;2022-07-10T13:51:40;21.30;86.40
48876;DHT22;34689;51.644;5.618;2022-07-10T13:54:06;21.40;86.40
48876;DHT22;34689;51.644;5.618;2022-07-10T13:56:32;21.40;86.30
48876;DHT22;34689;51.644;5.618;2022-07-10T13:59:04;21.40;86.10
48876;DHT22;34689;51.644;5.618;2022-07-10T14:01:32;21.40;86.10
48876;DHT22;34689;51.644;5.618;2022-07-10T14:04:03;21.40;86.20
48876;DHT22;34689;51.644;5.618;2022-07-10T14:06:29;21.40;86.30
48876;DHT22;34689;51.644;5.618;2022-07-10T14:08:55;21.40;86.30
48876;DHT22;34689;51.644;5.618;2022-07-10T14:11:21;21.40;86.50
48876;DHT22;34689;51.644;5.618;2022-07-10T14:13:52;21.40;86.60
48876;DHT22;34689;51.644;5.618;2022-07-10T14:16:21;21.40;86.50
48876;DHT22;34689;51.644;5.618;2022-07-10T14:18:50;21.40;86.50
48876;DHT22;34689;51.644;5.618;2022-07-10T14:21:18;21.50;86.40
48876;DHT22;34689;51.644;5.618;2022-07-10T14:23:46;21.50;86.20
48876;DHT22;34689;51.644;5.618;2022-07-10T14:26:16;21.50;86.10
48876;DHT22;34689;51.644;5.618;2022-07-10T14:28:42;21.50;85.90
48876;DHT22;34689;51.644;5.618;2022-07-10T14:31:08;21.50;85.90
48876;DHT22;34689;51.644;5.618;2022-07-10T14:33:37;21.60;85.80
48876;DHT22;34689;51.644;5.618;2022-07-10T14:36:06;21.50;85.80
48876;DHT22;34689;51.644;5.618;2022-07-10T14:38:32;21.50;85.90
48876;DHT22;34689;51.644;5.618;2022-07-10T14:41:01;21.60;85.80
48876;DHT22;34689;51.644;5.618;2022-07-10T14:43:30;21.60;86.00
48876;DHT22;34689;51.644;5.618;2022-07-10T14:45:59;21.60;86.20
48876;DHT22;34689;51.644;5.618;2022-07-10T14:48:31;21.60;86.00
48876;DHT22;34689;51.644;5.618;2022-07-10T14:50:57;21.70;86.00
48876;DHT22;34689;51.644;5.618;2022-07-10T14:53:23;21.70;85.70
48876;DHT22;34689;51.644;5.618;2022-07-10T14:55:52;21.70;85.60
48876;DHT22;34689;51.644;5.618;2022-07-10T14:58:18;21.70;85.40
48876;DHT22;34689;51.644;5.618;2022-07-10T15:00:46;21.80;85.30
48876;DHT22;34689;51.644;5.618;2022-07-10T15:03:14;21.70;85.20
48876;DHT22;34689;51.644;5.618;2022-07-10T15:05:43;21.70;85.20
48876;DHT22;34689;51.644;5.618;2022-07-10T15:08:14;21.60;85.00
48876;DHT22;34689;51.644;5.618;2022-07-10T15:10:42;21.60;85.00
48876;DHT22;34689;51.644;5.618;2022-07-10T15:13:11;21.60;84.90
48876;DHT22;34689;51.644;5.618;2022-07-10T15:15:43;21.60;84.80
48876;DHT22;34689;51.644;5.618;2022-07-10T15:18:09;21.60;84.80
48876;DHT22;34689;51.644;5.618;2022-07-10T15:20:35;21.60;84.70
48876;DHT22;34689;51.644;5.618;2022-07-10T15:23:05;21.60;84.60
48876;DHT22;34689;51.644;5.618;2022-07-10T15:25:33;21.60;84.50
48876;DHT22;34689;51.644;5.618;2022-07-10T15:28:08;21.60;84.40
48876;DHT22;34689;51.644;5.618;2022-07-10T15:30:38;21.60;84.10
48876;DHT22;34689;51.644;5.618;2022-07-10T15:33:07;21.60;84.10
48876;DHT22;34689;51.644;5.618;2022-07-10T15:35:36;21.60;84.10
48876;DHT22;34689;51.644;5.618;2022-07-10T15:38:05;21.60;84.00
48876;DHT22;34689;51.644;5.618;2022-07-10T15:40:31;21.60;83.90
48876;DHT22;34689;51.644;5.618;2022-07-10T15:43:01;21.60;83.80
48876;DHT22;34689;51.644;5.618;2022-07-10T15:45:31;21.70;83.80
48876;DHT22;34689;51.644;5.618;2022-07-10T15:47:58;21.70;83.80
48876;DHT22;34689;51.644;5.618;2022-07-10T15:50:27;21.70;83.70
48876;DHT22;34689;51.644;5.618;2022-07-10T15:52:53;21.70;83.60
48876;DHT22;34689;51.644;5.618;2022-07-10T15:55:19;21.70;83.60
48876;DHT22;34689;51.644;5.618;2022-07-10T15:57:47;21.60;83.80
48876;DHT22;34689;51.644;5.618;2022-07-10T16:00:13;21.60;83.80
48876;DHT22;34689;51.644;5.618;2022-07-10T16:02:42;21.60;84.00
48876;DHT22;34689;51.644;5.618;2022-07-10T16:05:08;21.60;84.10
48876;DHT22;34689;51.644;5.618;2022-07-10T16:07:33;21.60;84.10
48876;DHT22;34689;51.644;5.618;2022-07-10T16:09:59;21.60;84.30
48876;DHT22;34689;51.644;5.618;2022-07-10T16:12:28;21.60;84.10
48876;DHT22;34689;51.644;5.618;2022-07-10T16:14:54;21.60;83.90
48876;DHT22;34689;51.644;5.618;2022-07-10T16:17:20;21.60;83.70
48876;DHT22;34689;51.644;5.618;2022-07-10T16:19:46;21.60;83.60